Time;durP1;ratioP1;P1;durP2;ratioP2;P2;SDS_P1;SDS_P2;PMS_P1;PMS_P2;Temp;Humidity;BMP_temperature;BMP_pressure;BME280_temperature;BME280_humidity;BME280_pressure;Samples;Min_cycle;Max_cycle;Signal;HPM_P1;HPM_P2
2022/08/14 00:01:46;;;;;;;5.88;4.07;;;;;;;;;;5087677;28;20052;-69
2022/08/14 00:04:20;;;;;;;5.20;4.70;;;;;;;;;;5087297;28;20140;-69
2022/08/14 00:07:05;;;;;;;5.03;4.10;;;;;;;;;;5083621;28;20063;-70
2022/08/14 00:09:33;;;;;;;5.28;4.50;;;;;;;;;;5087083;28;20138;-70
2022/08/14 00:12:19;;;;;;;4.75;4.35;;;;;;;;;;5072666;28;20059;-69
2022/08/14 00:14:50;;;;;;;8.15;4.68;;;;;;;;;;5078401;28;21015;-69
2022/08/14 00:17:20;;;;;;;4.95;4.45;;;;;;;;;;5083751;28;20045;-69
2022/08/14 00:19:47;;;;;;;5.90;4.82;;;;;;;;;;5077903;28;20053;-69
2022/08/14 00:22:17;;;;;;;4.50;3.90;;;;;;;;;;5073393;28;20061;-70
2022/08/14 00:25:04;;;;;;;5.13;4.57;;;;;;;;;;5080897;28;20079;-69
2022/08/14 00:27:31;;;;;;;5.25;4.60;;;;;;;;;;5087703;28;20105;-69
2022/08/14 00:30:07;;;;;;;10.13;5.20;;;;;;;;;;5079934;28;20084;-69
2022/08/14 00:32:36;;;;;;;5.70;5.10;;;;;;;;;;5082681;28;20519;-69
2022/08/14 00:35:21;;;;;;;;;;;;;;;;;;5090158;28;20529;-69
2022/08/14 00:38:07;;;;;;;5.45;4.55;;;;;;;;;;5081364;28;46870;-69
2022/08/14 00:40:33;;;;;;;6.68;4.70;;;;;;;;;;5086410;28;20049;-70
2022/08/14 00:43:01;;;;;;;5.28;4.68;;;;;;;;;;5072086;28;20056;-69
2022/08/14 00:45:30;;;;;;;4.80;4.40;;;;;;;;;;5074191;28;20060;-69
2022/08/14 00:47:57;;;;;;;4.70;4.25;;;;;;;;;;5090213;28;20053;-70
2022/08/14 00:50:27;;;;;;;8.50;5.40;;;;;;;;;;5077628;28;20057;-69
2022/08/14 00:52:55;;;;;;;5.43;4.38;;;;;;;;;;5079382;28;20052;-70
2022/08/14 00:55:21;;;;;;;5.00;4.50;;;;;;;;;;5090408;28;20086;-69
2022/08/14 00:58:29;;;;;;;6.72;5.15;;;;;;;;;;5083724;28;20497;-70
2022/08/14 01:00:35;;;;;;;8.02;5.32;;;;;;;;;;5082735;28;20050;-69
2022/08/14 01:03:17;;;;;;;9.00;5.13;;;;;;;;;;5085804;28;20122;-69
2022/08/14 01:05:48;;;;;;;6.85;4.93;;;;;;;;;;5083596;28;20056;-69
2022/08/14 01:08:28;;;;;;;7.25;5.38;;;;;;;;;;5076236;28;20470;-70
2022/08/14 01:11:14;;;;;;;6.65;4.97;;;;;;;;;;5085249;28;20585;-69
2022/08/14 01:13:45;;;;;;;5.53;4.75;;;;;;;;;;5075221;28;20065;-70
2022/08/14 01:16:21;;;;;;;7.72;4.53;;;;;;;;;;5085221;28;20477;-70
2022/08/14 01:21:39;;;;;;;10.10;5.03;;;;;;;;;;5078756;28;20045;-70
2022/08/14 01:24:14;;;;;;;7.82;5.38;;;;;;;;;;5075206;28;20502;-69
2022/08/14 01:26:53;;;;;;;5.50;5.00;;;;;;;;;;5090957;28;20114;-69
2022/08/14 01:29:21;;;;;;;7.47;5.40;;;;;;;;;;5079794;28;20053;-69
2022/08/14 01:32:08;;;;;;;6.28;5.68;;;;;;;;;;5076478;28;20049;-69
2022/08/14 01:34:35;;;;;;;5.40;4.90;;;;;;;;;;5079683;28;20052;-70
2022/08/14 01:37:23;;;;;;;5.82;5.20;;;;;;;;;;5075967;28;20060;-69
2022/08/14 01:39:50;;;;;;;6.18;5.20;;;;;;;;;;5084281;28;20535;-70
2022/08/14 01:42:20;;;;;;;7.07;4.90;;;;;;;;;;5079056;28;20122;-70
2022/08/14 01:45:04;;;;;;;5.25;4.65;;;;;;;;;;5084370;28;20052;-69
2022/08/14 01:47:31;;;;;;;6.07;5.03;;;;;;;;;;5072778;28;20049;-70
2022/08/14 01:50:05;;;;;;;5.80;5.30;;;;;;;;;;5071564;28;20060;-69
2022/08/14 01:52:33;;;;;;;6.80;5.32;;;;;;;;;;5088737;28;20139;-69
2022/08/14 01:55:20;;;;;;;6.50;5.65;;;;;;;;;;5077197;28;20144;-69
2022/08/14 01:57:47;;;;;;;5.90;5.40;;;;;;;;;;5088920;28;20052;-69
2022/08/14 02:00:37;;;;;;;6.70;5.47;;;;;;;;;;5071131;28;20060;-69
2022/08/14 02:03:04;;;;;;;6.05;5.50;;;;;;;;;;5077552;28;20059;-69
2022/08/14 02:05:33;;;;;;;6.05;5.45;;;;;;;;;;5070602;28;20148;-69
2022/08/14 02:08:03;;;;;;;6.32;5.13;;;;;;;;;;5075173;28;20134;-69
2022/08/14 02:10:36;;;;;;;7.07;5.55;;;;;;;;;;5076968;28;20049;-69
2022/08/14 02:13:12;;;;;;;6.72;5.60;;;;;;;;;;5091028;28;20092;-69
2022/08/14 02:15:41;;;;;;;8.95;6.05;;;;;;;;;;5079461;28;20064;-69
2022/08/14 02:18:09;;;;;;;8.57;5.50;;;;;;;;;;5083647;28;20093;-69
2022/08/14 02:20:38;;;;;;;6.00;5.40;;;;;;;;;;5084539;28;20522;-69
2022/08/14 02:23:05;;;;;;;6.68;6.05;;;;;;;;;;5086250;28;20083;-69
2022/08/14 02:25:33;;;;;;;7.63;5.60;;;;;;;;;;5082187;28;20593;-69
2022/08/14 02:28:00;;;;;;;5.68;5.18;;;;;;;;;;5075076;28;20057;-68
2022/08/14 02:30:47;;;;;;;6.78;5.25;;;;;;;;;;5088749;28;20061;-69
2022/08/14 02:33:21;;;;;;;6.55;5.90;;;;;;;;;;5074932;28;20417;-69
2022/08/14 02:35:47;;;;;;;6.22;5.63;;;;;;;;;;5087093;28;20056;-68
2022/08/14 02:38:30;;;;;;;6.05;5.45;;;;;;;;;;5077386;28;20589;-69
2022/08/14 02:41:00;;;;;;;6.45;5.85;;;;;;;;;;5085765;28;20147;-69
2022/08/14 02:43:30;;;;;;;7.35;5.63;;;;;;;;;;5074362;28;20487;-69
2022/08/14 02:46:11;;;;;;;6.82;5.82;;;;;;;;;;5081283;28;20497;-69
2022/08/14 02:48:39;;;;;;;7.95;5.78;;;;;;;;;;5083401;28;20144;-69
2022/08/14 02:51:25;;;;;;;8.20;6.05;;;;;;;;;;5082023;28;20059;-69
2022/08/14 02:53:57;;;;;;;6.70;5.97;;;;;;;;;;5082523;28;20060;-69
2022/08/14 02:56:26;;;;;;;7.55;6.10;;;;;;;;;;5078117;28;20053;-69
2022/08/14 02:59:12;;;;;;;6.35;5.75;;;;;;;;;;5074661;28;20495;-69
2022/08/14 03:01:39;;;;;;;9.10;5.68;;;;;;;;;;5082702;28;21863;-69
2022/08/14 03:04:16;;;;;;;7.63;6.03;;;;;;;;;;5088230;28;20243;-69
2022/08/14 03:06:46;;;;;;;7.35;6.05;;;;;;;;;;5087588;28;20255;-69
2022/08/14 03:09:24;;;;;;;6.45;5.85;;;;;;;;;;5080631;28;20135;-69
2022/08/14 03:12:11;;;;;;;8.35;5.97;;;;;;;;;;5077316;28;20515;-69
2022/08/14 03:14:48;;;;;;;7.70;6.45;;;;;;;;;;5079190;28;20156;-69
2022/08/14 03:17:15;;;;;;;7.30;6.60;;;;;;;;;;5093016;28;20094;-69
2022/08/14 03:19:42;;;;;;;9.23;6.35;;;;;;;;;;5089280;28;20110;-69
2022/08/14 03:22:09;;;;;;;6.40;5.80;;;;;;;;;;5081764;28;20057;-69
2022/08/14 03:24:43;;;;;;;7.43;6.20;;;;;;;;;;5076623;28;20175;-69
2022/08/14 03:27:12;;;;;;;9.43;6.45;;;;;;;;;;5073769;28;20083;-69
2022/08/14 03:29:39;;;;;;;6.93;6.00;;;;;;;;;;5084136;28;20154;-68
2022/08/14 03:32:06;;;;;;;7.75;5.90;;;;;;;;;;5077263;28;20055;-68
2022/08/14 03:34:33;;;;;;;12.45;5.60;;;;;;;;;;5085725;28;20052;-69
2022/08/14 03:37:18;;;;;;;8.05;6.18;;;;;;;;;;5079951;28;20092;-73
2022/08/14 03:40:05;;;;;;;8.23;6.57;;;;;;;;;;5076323;28;20060;-73
2022/08/14 03:42:37;;;;;;;8.95;6.30;;;;;;;;;;5089239;28;20053;-72
2022/08/14 03:45:05;;;;;;;6.40;5.75;;;;;;;;;;5083186;28;20515;-73
2022/08/14 03:47:51;;;;;;;6.85;6.15;;;;;;;;;;5093965;28;20055;-73
2022/08/14 03:50:24;;;;;;;9.18;6.93;;;;;;;;;;5088927;28;20055;-72
2022/08/14 03:53:00;;;;;;;7.00;6.30;;;;;;;;;;5084500;28;20087;-73
2022/08/14 03:55:27;;;;;;;6.88;6.28;;;;;;;;;;5084159;28;20130;-72
2022/08/14 03:57:55;;;;;;;8.27;7.18;;;;;;;;;;5080787;28;20060;-72
2022/08/14 04:00:22;;;;;;;9.52;7.00;;;;;;;;;;5083005;28;20414;-72
2022/08/14 04:03:09;;;;;;;7.07;6.38;;;;;;;;;;5079424;28;20941;-73
2022/08/14 04:05:37;;;;;;;8.65;7.65;;;;;;;;;;5083853;28;20062;-72
2022/08/14 04:08:13;;;;;;;8.77;7.00;;;;;;;;;;5087808;28;20075;-73
2022/08/14 04:10:56;;;;;;;9.73;7.30;;;;;;;;;;5088269;28;20952;-73
2022/08/14 04:13:23;;;;;;;10.77;7.07;;;;;;;;;;5079892;28;20064;-73
2022/08/14 04:15:52;;;;;;;7.40;6.75;;;;;;;;;;5073729;28;20057;-73
2022/08/14 04:18:28;;;;;;;7.18;6.50;;;;;;;;;;5084940;28;20055;-73
2022/08/14 04:20:56;;;;;;;8.15;7.15;;;;;;;;;;5076218;28;20059;-72
2022/08/14 04:23:24;;;;;;;8.18;7.28;;;;;;;;;;5072062;28;20061;-72
2022/08/14 04:25:58;;;;;;;10.85;7.32;;;;;;;;;;5072200;28;20424;-73
2022/08/14 04:28:25;;;;;;;7.40;6.28;;;;;;;;;;5084376;28;20053;-73
2022/08/14 04:31:11;;;;;;;9.55;7.13;;;;;;;;;;5080115;28;20045;-72
2022/08/14 04:33:40;;;;;;;7.35;6.75;;;;;;;;;;5087499;28;20455;-72
2022/08/14 04:36:07;;;;;;;7.32;6.63;;;;;;;;;;5071281;28;20077;-73
2022/08/14 04:44:08;;;;;;;13.20;7.28;;;;;;;;;;5088570;28;20056;-73
2022/08/14 04:49:36;;;;;;;10.90;7.32;;;;;;;;;;5076893;28;20056;-73
2022/08/14 04:52:11;;;;;;;;;;;;;;;;;;5073391;28;20064;-72
2022/08/14 04:54:44;;;;;;;8.95;6.72;;;;;;;;;;5082207;28;46555;-70
2022/08/14 04:57:12;;;;;;;11.13;7.18;;;;;;;;;;5091657;28;20487;-70
2022/08/14 04:59:39;;;;;;;7.97;7.18;;;;;;;;;;5085308;28;20136;-71
2022/08/14 05:02:08;;;;;;;8.18;7.38;;;;;;;;;;5086084;28;20555;-71
2022/08/14 05:04:35;;;;;;;7.88;7.07;;;;;;;;;;5075384;28;20059;-72
2022/08/14 05:07:10;;;;;;;8.68;7.80;;;;;;;;;;5091112;28;20060;-71
2022/08/14 05:09:36;;;;;;;8.52;7.55;;;;;;;;;;5090598;28;20055;-71
2022/08/14 05:12:09;;;;;;;9.63;7.53;;;;;;;;;;5083481;28;20052;-71
2022/08/14 05:14:56;;;;;;;10.38;7.57;;;;;;;;;;5081966;28;20052;-70
2022/08/14 05:17:25;;;;;;;10.02;7.88;;;;;;;;;;5085008;28;20049;-71
2022/08/14 05:20:09;;;;;;;;;;;;;;;;;;5089494;28;20126;-71
2022/08/14 05:22:56;;;;;;;10.38;7.85;;;;;;;;;;5073226;28;19928;-71
2022/08/14 05:25:24;;;;;;;8.98;7.78;;;;;;;;;;5085581;28;20056;-70
2022/08/14 05:27:59;;;;;;;10.50;7.75;;;;;;;;;;5087086;28;20053;-71
2022/08/14 05:30:25;;;;;;;10.05;7.45;;;;;;;;;;5075154;28;20060;-71
2022/08/14 05:32:52;;;;;;;9.48;7.90;;;;;;;;;;5100821;28;20057;-71
2022/08/14 05:35:19;;;;;;;12.45;7.90;;;;;;;;;;5086278;28;20504;-71
2022/08/14 05:37:48;;;;;;;8.95;7.65;;;;;;;;;;5081765;28;20052;-72
2022/08/14 05:40:14;;;;;;;9.60;8.43;;;;;;;;;;5080746;28;20057;-71
2022/08/14 05:42:41;;;;;;;9.73;8.30;;;;;;;;;;5085723;28;20053;-71
2022/08/14 05:45:13;;;;;;;11.93;8.45;;;;;;;;;;5071008;28;20053;-71
2022/08/14 05:47:39;;;;;;;10.50;8.63;;;;;;;;;;5071524;28;20056;-71
2022/08/14 05:50:07;;;;;;;10.35;8.10;;;;;;;;;;5098178;28;20098;-71
2022/08/14 05:52:44;;;;;;;10.70;8.65;;;;;;;;;;5094405;28;20049;-71
2022/08/14 05:55:10;;;;;;;9.50;8.40;;;;;;;;;;5076937;28;20048;-71
2022/08/14 05:57:47;;;;;;;9.55;8.00;;;;;;;;;;5091368;28;20049;-72
2022/08/14 06:00:14;;;;;;;12.02;8.13;;;;;;;;;;5074235;28;20476;-74
2022/08/14 06:02:57;;;;;;;9.82;8.18;;;;;;;;;;5074208;28;20065;-72
2022/08/14 06:05:26;;;;;;;9.63;8.45;;;;;;;;;;5070597;28;20102;-70
2022/08/14 06:07:57;;;;;;;10.50;8.45;;;;;;;;;;5071300;28;20054;-71
2022/08/14 06:10:24;;;;;;;9.32;8.43;;;;;;;;;;5073706;28;20049;-72
2022/08/14 06:12:53;;;;;;;11.60;8.88;;;;;;;;;;5069279;28;20063;-71
2022/08/14 06:15:31;;;;;;;9.55;8.57;;;;;;;;;;5090162;28;20056;-70
2022/08/14 06:17:58;;;;;;;10.30;9.02;;;;;;;;;;5090030;28;20106;-71
2022/08/14 06:20:26;;;;;;;10.45;8.88;;;;;;;;;;5073033;28;20107;-71
2022/08/14 06:22:53;;;;;;;10.55;8.68;;;;;;;;;;5089867;28;20118;-72
2022/08/14 06:25:21;;;;;;;8.95;8.05;;;;;;;;;;5090582;28;20488;-70
2022/08/14 06:27:48;;;;;;;11.63;9.27;;;;;;;;;;5085423;28;20102;-71
2022/08/14 06:30:16;;;;;;;11.02;8.52;;;;;;;;;;5091229;28;20080;-71
2022/08/14 06:32:43;;;;;;;9.60;8.32;;;;;;;;;;5090921;28;20053;-72
2022/08/14 06:35:11;;;;;;;12.00;8.73;;;;;;;;;;5088646;28;20057;-72
2022/08/14 06:37:50;;;;;;;9.98;8.52;;;;;;;;;;5075761;28;20122;-72
2022/08/14 06:40:21;;;;;;;11.73;8.80;;;;;;;;;;5079792;28;20058;-70
2022/08/14 06:42:56;;;;;;;10.73;8.60;;;;;;;;;;5091851;28;20103;-71
2022/08/14 06:45:29;;;;;;;11.07;8.90;;;;;;;;;;5072882;28;20045;-71
2022/08/14 06:47:55;;;;;;;9.32;8.35;;;;;;;;;;5070164;28;20053;-71
2022/08/14 06:50:25;;;;;;;9.68;8.15;;;;;;;;;;5071548;28;20049;-71
2022/08/14 06:52:55;;;;;;;13.05;8.75;;;;;;;;;;5090907;28;20087;-71
2022/08/14 06:55:21;;;;;;;10.40;8.32;;;;;;;;;;5095300;28;20091;-72
2022/08/14 06:57:53;;;;;;;13.40;7.93;;;;;;;;;;5093070;28;20512;-72
2022/08/14 07:00:21;;;;;;;11.80;8.38;;;;;;;;;;5094509;28;20056;-71
2022/08/14 07:05:46;;;;;;;12.50;8.18;;;;;;;;;;5093250;28;20053;-71
2022/08/14 07:08:25;;;;;;;9.10;8.15;;;;;;;;;;5078554;28;20060;-72
2022/08/14 07:10:57;;;;;;;10.45;8.23;;;;;;;;;;5083846;28;20504;-73
2022/08/14 07:13:25;;;;;;;11.40;8.90;;;;;;;;;;5074003;28;20057;-73
2022/08/14 07:15:53;;;;;;;13.48;8.48;;;;;;;;;;5093364;28;20048;-72
2022/08/14 07:18:22;;;;;;;12.65;9.07;;;;;;;;;;5092215;28;20423;-72
2022/08/14 07:20:49;;;;;;;14.98;8.55;;;;;;;;;;5094075;28;20059;-72
2022/08/14 07:23:15;;;;;;;12.63;8.45;;;;;;;;;;5093476;28;20546;-73
2022/08/14 07:25:47;;;;;;;8.95;8.02;;;;;;;;;;5088514;28;20049;-73
2022/08/14 07:28:22;;;;;;;11.35;9.02;;;;;;;;;;5084555;28;20064;-72
2022/08/14 07:30:51;;;;;;;11.90;8.38;;;;;;;;;;5093447;28;20202;-71
2022/08/14 07:33:18;;;;;;;10.68;9.10;;;;;;;;;;5073498;28;20056;-73
2022/08/14 07:35:55;;;;;;;11.57;8.57;;;;;;;;;;5071896;28;20057;-72
2022/08/14 07:38:25;;;;;;;10.68;8.43;;;;;;;;;;5087130;28;20102;-72
2022/08/14 07:41:01;;;;;;;8.90;7.68;;;;;;;;;;5094056;28;20103;-73
2022/08/14 07:43:28;;;;;;;9.07;8.18;;;;;;;;;;5091981;28;20052;-73
2022/08/14 07:45:54;;;;;;;14.05;8.32;;;;;;;;;;5073227;28;20049;-73
2022/08/14 07:48:22;;;;;;;9.85;7.72;;;;;;;;;;5086290;28;20053;-72
2022/08/14 07:50:51;;;;;;;15.05;8.63;;;;;;;;;;5093224;28;20052;-72
2022/08/14 07:53:20;;;;;;;9.65;8.15;;;;;;;;;;5109980;28;20502;-72
2022/08/14 07:55:47;;;;;;;8.25;7.45;;;;;;;;;;5100551;27;20056;-73
2022/08/14 07:58:35;;;;;;;8.73;7.82;;;;;;;;;;5077321;28;20048;-73
2022/08/14 08:01:17;;;;;;;8.43;7.43;;;;;;;;;;5080774;28;20052;-72
2022/08/14 08:03:48;;;;;;;8.02;7.18;;;;;;;;;;5076818;28;20060;-73
2022/08/14 08:06:24;;;;;;;8.88;7.55;;;;;;;;;;5085312;28;20048;-69
2022/08/14 08:08:56;;;;;;;10.60;6.70;;;;;;;;;;5091578;28;20063;-68
2022/08/14 08:11:31;;;;;;;12.35;7.22;;;;;;;;;;5073015;28;20111;-70
2022/08/14 08:14:06;;;;;;;10.25;7.38;;;;;;;;;;5074357;28;20060;-69
2022/08/14 08:16:42;;;;;;;7.47;6.70;;;;;;;;;;5084905;28;20075;-69
2022/08/14 08:19:10;;;;;;;8.43;7.07;;;;;;;;;;5087969;28;20436;-69
2022/08/14 08:21:39;;;;;;;9.18;6.43;;;;;;;;;;5092935;28;20510;-70
2022/08/14 08:24:11;;;;;;;7.10;6.32;;;;;;;;;;5091806;28;20056;-68
2022/08/14 08:26:44;;;;;;;7.38;6.60;;;;;;;;;;5075946;28;20059;-69
2022/08/14 08:29:17;;;;;;;8.20;6.90;;;;;;;;;;5079540;28;20404;-69
2022/08/14 08:31:49;;;;;;;7.97;6.83;;;;;;;;;;5083075;28;20052;-69
2022/08/14 08:34:18;;;;;;;10.15;7.55;;;;;;;;;;5081034;28;20055;-69
2022/08/14 08:36:45;;;;;;;13.70;6.45;;;;;;;;;;5087545;28;20916;-69
2022/08/14 08:39:12;;;;;;;8.73;6.97;;;;;;;;;;5092702;28;20048;-68
2022/08/14 08:41:47;;;;;;;;;;;;;;;;;;5072931;28;20053;-69
2022/08/14 08:44:15;;;;;;;6.63;6.03;;;;;;;;;;5071689;28;46683;-69
2022/08/14 08:47:00;;;;;;;7.63;6.18;;;;;;;;;;5072919;28;20056;-69
2022/08/14 08:49:38;;;;;;;7.82;6.15;;;;;;;;;;5077903;28;20134;-69
2022/08/14 08:52:13;;;;;;;8.43;6.47;;;;;;;;;;5079870;28;20055;-70
2022/08/14 08:54:53;;;;;;;7.00;6.10;;;;;;;;;;5091885;28;20080;-68
2022/08/14 08:57:20;;;;;;;6.82;6.10;;;;;;;;;;5075650;28;20059;-68
2022/08/14 08:59:46;;;;;;;7.68;6.00;;;;;;;;;;5073569;28;20195;-70
2022/08/14 09:02:21;;;;;;;6.60;5.88;;;;;;;;;;5073335;28;20056;-70
2022/08/14 09:04:47;;;;;;;8.90;5.35;;;;;;;;;;5071768;28;20064;-69
2022/08/14 09:07:25;;;;;;;9.13;5.60;;;;;;;;;;5089065;28;20052;-69
2022/08/14 09:09:55;;;;;;;8.55;6.00;;;;;;;;;;5090049;28;20147;-70
2022/08/14 09:12:26;;;;;;;7.47;6.50;;;;;;;;;;5090057;28;20083;-70
2022/08/14 09:15:12;;;;;;;7.75;5.95;;;;;;;;;;5088544;28;20111;-69
2022/08/14 09:17:49;;;;;;;7.32;5.60;;;;;;;;;;5090350;28;20052;-70
2022/08/14 09:20:15;;;;;;;6.20;5.60;;;;;;;;;;5090736;28;20049;-70
2022/08/14 09:22:52;;;;;;;5.93;5.43;;;;;;;;;;5092823;28;20492;-70
2022/08/14 09:25:20;;;;;;;6.10;5.60;;;;;;;;;;5084243;28;20531;-70
2022/08/14 09:28:07;;;;;;;6.55;5.75;;;;;;;;;;5072710;28;20493;-70
2022/08/14 09:30:35;;;;;;;7.22;5.75;;;;;;;;;;5071561;28;20408;-70
2022/08/14 09:33:23;;;;;;;11.65;6.28;;;;;;;;;;5071671;28;20110;-70
2022/08/14 09:36:08;;;;;;;9.40;6.28;;;;;;;;;;5070329;28;20992;-70
2022/08/14 09:39:13;;;;;;;10.93;6.40;;;;;;;;;;5080974;28;20113;-71
2022/08/14 09:42:06;;;;;;;8.35;6.53;;;;;;;;;;5049023;28;20057;-67
2022/08/14 09:45:11;;;;;;;7.82;5.88;;;;;;;;;;5043440;28;20061;-70
2022/08/14 09:47:47;;;;;;;7.00;6.40;;;;;;;;;;5068164;28;20055;-70
2022/08/14 09:50:28;;;;;;;11.82;7.00;;;;;;;;;;5071750;28;20045;-70
2022/08/14 09:53:03;;;;;;;8.68;6.20;;;;;;;;;;5076366;28;20082;-70
2022/08/14 09:55:32;;;;;;;11.38;6.28;;;;;;;;;;5090889;28;20472;-70
2022/08/14 09:58:10;;;;;;;6.10;5.50;;;;;;;;;;5091033;28;20087;-69
2022/08/14 10:00:49;;;;;;;7.20;5.63;;;;;;;;;;5071127;28;20052;-69
2022/08/14 10:03:32;;;;;;;7.05;6.35;;;;;;;;;;5079839;28;20052;-70
2022/08/14 10:06:03;;;;;;;7.50;5.85;;;;;;;;;;5100565;28;20072;-69
2022/08/14 10:08:39;;;;;;;9.32;5.47;;;;;;;;;;5075185;27;20059;-69
2022/08/14 10:11:13;;;;;;;6.18;5.20;;;;;;;;;;5079412;28;20496;-70
2022/08/14 10:13:40;;;;;;;6.75;6.05;;;;;;;;;;5087204;28;20056;-70
2022/08/14 10:16:29;;;;;;;5.93;5.43;;;;;;;;;;5090901;28;20053;-71
2022/08/14 10:19:08;;;;;;;6.28;5.35;;;;;;;;;;5091001;28;20053;-69
2022/08/14 10:21:35;;;;;;;;;;;;;;;;;;5101292;27;20102;-69
2022/08/14 10:24:08;;;;;;;6.47;5.85;;;;;;;;;;5085279;28;45730;-69
2022/08/14 10:26:35;;;;;;;5.82;5.32;;;;;;;;;;5091131;28;20051;-69
2022/08/14 10:29:10;;;;;;;10.57;6.20;;;;;;;;;;5083964;28;20053;-69
2022/08/14 10:31:55;;;;;;;5.53;5.03;;;;;;;;;;5071420;28;20064;-70
2022/08/14 10:34:23;;;;;;;5.32;4.88;;;;;;;;;;5085606;28;20062;-70
2022/08/14 10:37:02;;;;;;;5.68;4.80;;;;;;;;;;5080178;28;20572;-70
2022/08/14 10:39:40;;;;;;;5.50;5.00;;;;;;;;;;5074491;28;20056;-71
2022/08/14 10:42:34;;;;;;;6.15;4.85;;;;;;;;;;5075274;28;20053;-69
2022/08/14 10:45:03;;;;;;;6.80;4.88;;;;;;;;;;5084878;28;20075;-71
2022/08/14 10:47:36;;;;;;;5.15;4.65;;;;;;;;;;5101075;28;20048;-70
2022/08/14 10:50:33;;;;;;;6.40;4.70;;;;;;;;;;5074071;28;20076;-71
2022/08/14 10:53:04;;;;;;;6.88;4.45;;;;;;;;;;5079682;28;20115;-71
2022/08/14 10:55:39;;;;;;;5.38;4.47;;;;;;;;;;5095061;28;20067;-72
2022/08/14 10:58:11;;;;;;;4.70;4.30;;;;;;;;;;5092190;28;20860;-71
2022/08/14 11:00:40;;;;;;;4.93;4.50;;;;;;;;;;5088692;28;20045;-72
2022/08/14 11:03:13;;;;;;;4.90;4.40;;;;;;;;;;5080275;28;20110;-70
2022/08/14 11:05:52;;;;;;;5.35;4.50;;;;;;;;;;5093254;28;20060;-72
2022/08/14 11:08:31;;;;;;;4.40;4.00;;;;;;;;;;5094577;28;20056;-71
2022/08/14 11:10:59;;;;;;;6.30;4.65;;;;;;;;;;5089200;28;20053;-70
2022/08/14 11:13:27;;;;;;;8.05;4.05;;;;;;;;;;5075780;28;20488;-72
2022/08/14 11:15:59;;;;;;;4.47;4.07;;;;;;;;;;5077082;28;20075;-71
2022/08/14 11:18:27;;;;;;;5.38;4.00;;;;;;;;;;5093663;28;20127;-72
2022/08/14 11:21:00;;;;;;;4.40;3.75;;;;;;;;;;5087952;28;20045;-73
2022/08/14 11:23:29;;;;;;;8.45;4.05;;;;;;;;;;5103089;28;20056;-71
2022/08/14 11:26:05;;;;;;;5.50;4.57;;;;;;;;;;5114991;28;20056;-72
2022/08/14 11:28:33;;;;;;;7.15;4.28;;;;;;;;;;5114341;28;20056;-72
2022/08/14 11:31:14;;;;;;;5.47;3.85;;;;;;;;;;5114567;28;20079;-69
2022/08/14 11:33:42;;;;;;;4.10;3.70;;;;;;;;;;5114450;28;20083;-72
2022/08/14 11:36:09;;;;;;;3.42;3.15;;;;;;;;;;5096997;28;20075;-71
2022/08/14 11:38:44;;;;;;;5.43;4.47;;;;;;;;;;5076982;28;20052;-72
2022/08/14 11:41:12;;;;;;;4.35;4.05;;;;;;;;;;5077316;28;20061;-71
2022/08/14 11:43:43;;;;;;;4.03;3.63;;;;;;;;;;5073994;28;20057;-70
2022/08/14 11:46:23;;;;;;;5.00;4.05;;;;;;;;;;5072287;28;20057;-69
2022/08/14 11:48:56;;;;;;;4.63;3.50;;;;;;;;;;5073861;28;20045;-70
2022/08/14 11:51:33;;;;;;;4.28;3.60;;;;;;;;;;5072751;28;20052;-70
2022/08/14 11:54:19;;;;;;;5.50;4.38;;;;;;;;;;5091619;28;20080;-69
2022/08/14 11:57:00;;;;;;;6.78;3.78;;;;;;;;;;5096793;28;20497;-69
2022/08/14 11:59:28;;;;;;;6.15;4.00;;;;;;;;;;5091383;28;20103;-68
2022/08/14 12:02:11;;;;;;;4.68;3.50;;;;;;;;;;5089950;28;20561;-71
2022/08/14 12:04:58;;;;;;;6.90;4.35;;;;;;;;;;5081714;28;20049;-72
2022/08/14 12:07:24;;;;;;;4.10;3.28;;;;;;;;;;5077251;28;20053;-71
2022/08/14 12:09:54;;;;;;;3.90;3.60;;;;;;;;;;5086536;28;20385;-72
2022/08/14 12:12:23;;;;;;;4.93;3.80;;;;;;;;;;5091224;28;20506;-71
2022/08/14 12:15:02;;;;;;;7.38;3.90;;;;;;;;;;5092969;28;20052;-72
2022/08/14 12:17:32;;;;;;;4.32;3.92;;;;;;;;;;5090735;28;20094;-72
2022/08/14 12:20:13;;;;;;;4.40;4.10;;;;;;;;;;5092567;28;20155;-71
2022/08/14 12:22:44;;;;;;;4.32;3.92;;;;;;;;;;5092649;28;20048;-70
2022/08/14 12:25:21;;;;;;;4.38;3.97;;;;;;;;;;5092850;28;20147;-72
2022/08/14 12:27:52;;;;;;;5.10;4.60;;;;;;;;;;5092035;28;20056;-71
2022/08/14 12:30:28;;;;;;;5.13;4.05;;;;;;;;;;5072500;28;20057;-72
2022/08/14 12:33:04;;;;;;;5.93;4.63;;;;;;;;;;5089270;28;20059;-70
2022/08/14 12:35:41;;;;;;;4.40;4.05;;;;;;;;;;5087501;28;20053;-72
2022/08/14 12:38:11;;;;;;;5.50;4.05;;;;;;;;;;5083210;28;20144;-73
2022/08/14 12:40:50;;;;;;;4.45;3.47;;;;;;;;;;5088625;28;20085;-73
2022/08/14 12:43:18;;;;;;;3.92;3.53;;;;;;;;;;5092588;28;20491;-72
2022/08/14 12:45:55;;;;;;;7.82;4.25;;;;;;;;;;5092162;28;20052;-74
2022/08/14 12:48:22;;;;;;;3.72;3.42;;;;;;;;;;5085475;28;20110;-72
2022/08/14 12:50:57;;;;;;;5.82;3.85;;;;;;;;;;5092393;28;20133;-72
2022/08/14 12:53:35;;;;;;;4.22;3.88;;;;;;;;;;5091200;28;20060;-74
2022/08/14 12:56:05;;;;;;;3.97;3.63;;;;;;;;;;5090684;28;20558;-73
2022/08/14 12:58:54;;;;;;;8.07;4.03;;;;;;;;;;5072656;28;20061;-73
2022/08/14 13:01:30;;;;;;;5.82;4.05;;;;;;;;;;5087124;28;20507;-72
2022/08/14 13:04:16;;;;;;;6.78;3.90;;;;;;;;;;5082289;28;20057;-72
2022/08/14 13:06:44;;;;;;;5.35;3.78;;;;;;;;;;5089934;28;20156;-72
2022/08/14 13:09:17;;;;;;;3.88;3.58;;;;;;;;;;5091924;28;20118;-72
2022/08/14 13:11:45;;;;;;;6.95;4.00;;;;;;;;;;5089610;28;20061;-70
2022/08/14 13:14:12;;;;;;;4.45;3.67;;;;;;;;;;5091305;28;20061;-72
2022/08/14 13:16:43;;;;;;;6.68;3.47;;;;;;;;;;5086717;28;20136;-72
2022/08/14 13:19:16;;;;;;;19.02;5.20;;;;;;;;;;5091866;28;20106;-73
2022/08/14 13:21:43;;;;;;;5.45;3.97;;;;;;;;;;5079350;28;20156;-73
2022/08/14 13:24:30;;;;;;;4.18;3.78;;;;;;;;;;5072085;28;20521;-74
2022/08/14 13:27:02;;;;;;;4.72;4.10;;;;;;;;;;5088784;28;20056;-76
2022/08/14 13:29:31;;;;;;;6.70;4.80;;;;;;;;;;5083129;28;20118;-74
2022/08/14 13:31:57;;;;;;;4.10;3.70;;;;;;;;;;5090687;28;20056;-76
2022/08/14 13:34:26;;;;;;;5.90;4.05;;;;;;;;;;5091471;28;20123;-76
2022/08/14 13:36:56;;;;;;;5.05;3.88;;;;;;;;;;5089508;28;20143;-75
2022/08/14 13:39:31;;;;;;;5.15;3.90;;;;;;;;;;5086191;28;20053;-75
2022/08/14 13:42:07;;;;;;;4.70;3.90;;;;;;;;;;5084097;28;20052;-75
2022/08/14 13:44:39;;;;;;;7.63;4.40;;;;;;;;;;5073339;28;20135;-75
2022/08/14 13:47:08;;;;;;;4.97;3.85;;;;;;;;;;5083656;28;20484;-75
2022/08/14 13:49:36;;;;;;;4.50;3.78;;;;;;;;;;5092793;28;20052;-75
2022/08/14 13:52:03;;;;;;;3.63;3.17;;;;;;;;;;5076949;28;20052;-75
2022/08/14 13:54:52;;;;;;;5.13;3.80;;;;;;;;;;5090489;28;20159;-75
2022/08/14 13:57:21;;;;;;;4.70;3.60;;;;;;;;;;5079042;28;20195;-72
2022/08/14 13:59:59;;;;;;;6.00;3.75;;;;;;;;;;5090243;28;20053;-73
2022/08/14 14:02:26;;;;;;;5.15;4.13;;;;;;;;;;5090677;28;20152;-74
2022/08/14 14:04:59;;;;;;;4.47;4.07;;;;;;;;;;5103114;28;20075;-76
2022/08/14 14:07:27;;;;;;;3.97;3.67;;;;;;;;;;5092056;28;20110;-75
2022/08/14 14:10:00;;;;;;;3.75;3.45;;;;;;;;;;5104884;28;20084;-75
2022/08/14 14:12:35;;;;;;;4.70;4.20;;;;;;;;;;5096103;27;20549;-75
2022/08/14 14:15:08;;;;;;;4.10;3.80;;;;;;;;;;5090987;28;20080;-74
2022/08/14 14:17:35;;;;;;;4.18;3.80;;;;;;;;;;5093701;28;20064;-75
2022/08/14 14:20:05;;;;;;;3.97;3.63;;;;;;;;;;5095554;28;20071;-74
2022/08/14 14:22:32;;;;;;;4.72;4.32;;;;;;;;;;5099051;28;20052;-75
2022/08/14 14:25:19;;;;;;;3.72;3.42;;;;;;;;;;5095393;28;20052;-75
2022/08/14 14:27:48;;;;;;;4.60;3.85;;;;;;;;;;5081008;28;20059;-73
2022/08/14 14:30:22;;;;;;;3.70;3.40;;;;;;;;;;5095109;28;20570;-75
2022/08/14 14:33:10;;;;;;;4.38;3.88;;;;;;;;;;5098626;28;20061;-74
2022/08/14 14:35:57;;;;;;;4.60;3.67;;;;;;;;;;5092761;28;20079;-75
2022/08/14 14:38:25;;;;;;;4.55;3.90;;;;;;;;;;5090570;28;20390;-74
2022/08/14 14:40:58;;;;;;;4.43;4.03;;;;;;;;;;5095095;28;20062;-74
2022/08/14 14:43:27;;;;;;;5.90;3.97;;;;;;;;;;5095138;28;20052;-74
2022/08/14 14:45:53;;;;;;;3.90;3.60;;;;;;;;;;5094838;28;20063;-73
2022/08/14 14:48:22;;;;;;;4.38;3.97;;;;;;;;;;5099423;28;20051;-74
2022/08/14 14:50:56;;;;;;;6.87;3.97;;;;;;;;;;5104471;28;20072;-75
2022/08/14 14:53:23;;;;;;;5.32;3.83;;;;;;;;;;5094810;28;20052;-75
2022/08/14 14:55:52;;;;;;;3.60;3.30;;;;;;;;;;5085150;28;20566;-74
2022/08/14 14:58:40;;;;;;;3.80;3.50;;;;;;;;;;5092130;28;20044;-74
2022/08/14 15:01:08;;;;;;;4.70;3.60;;;;;;;;;;5092410;28;20053;-74
2022/08/14 15:03:37;;;;;;;4.15;3.70;;;;;;;;;;5090679;28;20057;-74
2022/08/14 15:06:11;;;;;;;5.38;3.90;;;;;;;;;;5090467;28;20060;-73
2022/08/14 15:08:45;;;;;;;4.25;3.85;;;;;;;;;;5090873;28;20053;-73
2022/08/14 15:11:25;;;;;;;4.30;4.00;;;;;;;;;;5081628;28;20064;-72
2022/08/14 15:13:55;;;;;;;4.80;4.40;;;;;;;;;;5084751;28;20893;-73
2022/08/14 15:16:22;;;;;;;4.57;3.90;;;;;;;;;;5099630;27;20052;-73
2022/08/14 15:18:50;;;;;;;5.10;4.60;;;;;;;;;;5096256;28;20056;-72
2022/08/14 15:21:18;;;;;;;4.35;3.95;;;;;;;;;;5094813;27;20056;-72
2022/08/14 15:23:46;;;;;;;4.78;4.22;;;;;;;;;;5081948;28;20053;-73
2022/08/14 15:26:14;;;;;;;5.43;4.05;;;;;;;;;;5094390;28;20098;-73
2022/08/14 15:29:02;;;;;;;4.63;4.13;;;;;;;;;;5079456;28;20471;-73
2022/08/14 15:31:33;;;;;;;6.97;4.50;;;;;;;;;;5095573;28;20494;-73
2022/08/14 15:34:13;;;;;;;5.93;5.32;;;;;;;;;;5079611;28;20093;-73